sensor_id;sensor_type;location;lat;lon;timestamp;pressure;altitude;pressure_sealevel;temperature;humidity
55932;BME280;41837;55.700;37.984;2023-03-01T00:00:01;99228.13;;;-7.57;77.55
55932;BME280;41837;55.700;37.984;2023-03-01T00:02:37;99231.22;;;-7.70;77.69
55932;BME280;41837;55.700;37.984;2023-03-01T00:05:04;99232.06;;;-7.70;78.48
55932;BME280;41837;55.700;37.984;2023-03-01T00:07:30;99222.75;;;-7.69;78.27
55932;BME280;41837;55.700;37.984;2023-03-01T00:09:57;99208.03;;;-7.85;78.00
55932;BME280;41837;55.700;37.984;2023-03-01T00:12:23;99227.59;;;-7.80;78.94
55932;BME280;41837;55.700;37.984;2023-03-01T00:14:49;99225.00;;;-7.83;78.60
55932;BME280;41837;55.700;37.984;2023-03-01T00:17:15;99221.56;;;-7.85;79.24
55932;BME280;41837;55.700;37.984;2023-03-01T00:19:42;99228.56;;;-7.75;79.06
55932;BME280;41837;55.700;37.984;2023-03-01T00:22:08;99220.31;;;-7.64;77.69
55932;BME280;41837;55.700;37.984;2023-03-01T00:24:34;99222.00;;;-7.65;78.37
55932;BME280;41837;55.700;37.984;2023-03-01T00:27:00;99225.28;;;-7.69;77.42
55932;BME280;41837;55.700;37.984;2023-03-01T00:29:27;99210.09;;;-7.68;78.07
55932;BME280;41837;55.700;37.984;2023-03-01T00:31:55;99220.25;;;-7.68;77.30
55932;BME280;41837;55.700;37.984;2023-03-01T00:34:21;99213.38;;;-7.73;77.39
55932;BME280;41837;55.700;37.984;2023-03-01T00:36:47;99221.88;;;-7.71;79.13
55932;BME280;41837;55.700;37.984;2023-03-01T00:39:14;99202.13;;;-7.84;78.43
55932;BME280;41837;55.700;37.984;2023-03-01T00:41:41;99215.81;;;-7.78;78.77
55932;BME280;41837;55.700;37.984;2023-03-01T00:44:08;99212.38;;;-7.80;79.62
55932;BME280;41837;55.700;37.984;2023-03-01T00:46:35;99210.75;;;-7.76;78.04
55932;BME280;41837;55.700;37.984;2023-03-01T00:49:02;99211.28;;;-7.91;79.54
55932;BME280;41837;55.700;37.984;2023-03-01T00:51:30;99216.56;;;-7.82;79.39
55932;BME280;41837;55.700;37.984;2023-03-01T00:53:59;99211.28;;;-7.91;78.65
55932;BME280;41837;55.700;37.984;2023-03-01T00:56:26;99211.34;;;-7.88;78.84
55932;BME280;41837;55.700;37.984;2023-03-01T00:58:53;99189.78;;;-8.07;79.58
55932;BME280;41837;55.700;37.984;2023-03-01T01:01:21;99213.84;;;-7.90;78.56
55932;BME280;41837;55.700;37.984;2023-03-01T01:03:54;99214.59;;;-7.95;79.00
55932;BME280;41837;55.700;37.984;2023-03-01T01:06:31;99219.53;;;-8.00;79.09
55932;BME280;41837;55.700;37.984;2023-03-01T01:08:59;99212.84;;;-7.96;79.35
55932;BME280;41837;55.700;37.984;2023-03-01T01:11:27;99209.28;;;-8.04;79.41
55932;BME280;41837;55.700;37.984;2023-03-01T01:13:55;99219.47;;;-8.03;79.30
55932;BME280;41837;55.700;37.984;2023-03-01T01:16:23;99215.09;;;-8.10;79.90
55932;BME280;41837;55.700;37.984;2023-03-01T01:18:51;99216.78;;;-8.11;81.26
55932;BME280;41837;55.700;37.984;2023-03-01T01:21:19;99207.66;;;-8.02;79.59
55932;BME280;41837;55.700;37.984;2023-03-01T01:23:46;99210.34;;;-7.95;78.43
55932;BME280;41837;55.700;37.984;2023-03-01T01:26:19;99208.56;;;-8.00;78.73
55932;BME280;41837;55.700;37.984;2023-03-01T01:28:46;99210.25;;;-8.01;79.31
55932;BME280;41837;55.700;37.984;2023-03-01T01:31:13;99214.41;;;-8.03;78.44
55932;BME280;41837;55.700;37.984;2023-03-01T01:33:39;99216.88;;;-8.04;79.39
55932;BME280;41837;55.700;37.984;2023-03-01T01:36:06;99215.22;;;-8.04;79.71
55932;BME280;41837;55.700;37.984;2023-03-01T01:38:34;99215.88;;;-8.13;80.17
55932;BME280;41837;55.700;37.984;2023-03-01T01:41:00;99203.94;;;-8.17;79.58
55932;BME280;41837;55.700;37.984;2023-03-01T01:43:33;99211.66;;;-8.12;80.21
55932;BME280;41837;55.700;37.984;2023-03-01T01:46:32;99216.00;;;-8.07;80.56
55932;BME280;41837;55.700;37.984;2023-03-01T01:49:35;99201.41;;;-8.17;79.33
55932;BME280;41837;55.700;37.984;2023-03-01T01:52:13;99221.00;;;-8.10;79.69
55932;BME280;41837;55.700;37.984;2023-03-01T01:54:50;99219.63;;;-7.97;81.30
55932;BME280;41837;55.700;37.984;2023-03-01T01:57:25;99209.97;;;-8.12;80.69
55932;BME280;41837;55.700;37.984;2023-03-01T01:59:56;99217.53;;;-8.13;81.34
55932;BME280;41837;55.700;37.984;2023-03-01T02:02:24;99226.31;;;-8.00;80.70
55932;BME280;41837;55.700;37.984;2023-03-01T02:04:54;99220.56;;;-7.92;82.12
55932;BME280;41837;55.700;37.984;2023-03-01T02:07:25;99214.00;;;-7.83;82.12
55932;BME280;41837;55.700;37.984;2023-03-01T02:09:52;99219.78;;;-7.91;81.34
55932;BME280;41837;55.700;37.984;2023-03-01T02:12:21;99220.03;;;-7.78;81.52
55932;BME280;41837;55.700;37.984;2023-03-01T02:14:52;99229.19;;;-7.85;81.45
55932;BME280;41837;55.700;37.984;2023-03-01T02:17:18;99228.53;;;-7.76;82.02
55932;BME280;41837;55.700;37.984;2023-03-01T02:22:39;99218.22;;;-7.84;82.53
55932;BME280;41837;55.700;37.984;2023-03-01T02:30:33;99224.81;;;-7.92;83.40
55932;BME280;41837;55.700;37.984;2023-03-01T02:33:03;99206.00;;;-8.00;83.38
55932;BME280;41837;55.700;37.984;2023-03-01T02:35:35;99218.72;;;-7.99;83.29
55932;BME280;41837;55.700;37.984;2023-03-01T02:38:06;99231.38;;;-8.00;84.46
55932;BME280;41837;55.700;37.984;2023-03-01T02:40:34;99233.03;;;-8.02;85.32
55932;BME280;41837;55.700;37.984;2023-03-01T02:43:04;99219.44;;;-8.04;84.70
55932;BME280;41837;55.700;37.984;2023-03-01T02:45:34;99226.16;;;-8.07;84.81
55932;BME280;41837;55.700;37.984;2023-03-01T02:48:00;99220.16;;;-8.10;85.28
55932;BME280;41837;55.700;37.984;2023-03-01T02:53:02;99227.41;;;-8.26;85.68
55932;BME280;41837;55.700;37.984;2023-03-01T02:55:33;99227.59;;;-8.18;84.55
55932;BME280;41837;55.700;37.984;2023-03-01T02:58:02;99230.94;;;-8.19;85.76
55932;BME280;41837;55.700;37.984;2023-03-01T03:00:47;99226.28;;;-8.37;84.98
55932;BME280;41837;55.700;37.984;2023-03-01T03:03:17;99228.69;;;-8.45;86.62
55932;BME280;41837;55.700;37.984;2023-03-01T03:05:45;99233.78;;;-8.43;86.39
55932;BME280;41837;55.700;37.984;2023-03-01T03:08:11;99238.81;;;-8.45;86.46
55932;BME280;41837;55.700;37.984;2023-03-01T03:10:40;99229.94;;;-8.62;86.89
55932;BME280;41837;55.700;37.984;2023-03-01T03:13:11;99229.19;;;-8.58;87.59
55932;BME280;41837;55.700;37.984;2023-03-01T03:15:38;99229.91;;;-8.64;87.85
55932;BME280;41837;55.700;37.984;2023-03-01T03:18:08;99238.47;;;-8.58;87.64
55932;BME280;41837;55.700;37.984;2023-03-01T03:20:36;99230.75;;;-8.63;88.67
55932;BME280;41837;55.700;37.984;2023-03-01T03:23:03;99238.25;;;-8.66;88.82
55932;BME280;41837;55.700;37.984;2023-03-01T03:25:29;99240.81;;;-8.66;89.65
55932;BME280;41837;55.700;37.984;2023-03-01T03:27:56;99240.63;;;-8.74;90.01
55932;BME280;41837;55.700;37.984;2023-03-01T03:30:28;99244.72;;;-8.79;90.41
55932;BME280;41837;55.700;37.984;2023-03-01T03:32:56;99222.09;;;-9.03;91.42
55932;BME280;41837;55.700;37.984;2023-03-01T03:35:31;99232.63;;;-8.88;91.30
55932;BME280;41837;55.700;37.984;2023-03-01T03:38:00;99244.50;;;-8.87;91.29
55932;BME280;41837;55.700;37.984;2023-03-01T03:40:30;99246.22;;;-8.86;91.92
55932;BME280;41837;55.700;37.984;2023-03-01T03:42:57;99252.31;;;-8.77;92.22
55932;BME280;41837;55.700;37.984;2023-03-01T03:45:24;99249.69;;;-8.82;92.05
55932;BME280;41837;55.700;37.984;2023-03-01T03:47:50;99253.84;;;-8.84;91.99
55932;BME280;41837;55.700;37.984;2023-03-01T03:50:17;99257.03;;;-8.91;92.01
55932;BME280;41837;55.700;37.984;2023-03-01T03:52:43;99251.03;;;-8.95;92.37
55932;BME280;41837;55.700;37.984;2023-03-01T03:55:11;99246.44;;;-9.08;92.77
55932;BME280;41837;55.700;37.984;2023-03-01T03:57:40;99256.56;;;-9.08;93.27
55932;BME280;41837;55.700;37.984;2023-03-01T04:00:10;99257.13;;;-9.19;94.34
55932;BME280;41837;55.700;37.984;2023-03-01T04:02:45;99247.00;;;-9.19;94.54
55932;BME280;41837;55.700;37.984;2023-03-01T04:05:13;99242.53;;;-9.27;95.07
55932;BME280;41837;55.700;37.984;2023-03-01T04:07:41;99251.31;;;-9.16;95.21
55932;BME280;41837;55.700;37.984;2023-03-01T04:10:13;99256.22;;;-9.21;94.37
55932;BME280;41837;55.700;37.984;2023-03-01T04:12:40;99256.63;;;-9.07;95.69
55932;BME280;41837;55.700;37.984;2023-03-01T04:15:09;99259.72;;;-9.17;95.06
55932;BME280;41837;55.700;37.984;2023-03-01T04:17:45;99256.22;;;-9.21;95.30
55932;BME280;41837;55.700;37.984;2023-03-01T04:20:14;99246.06;;;-9.22;95.43
55932;BME280;41837;55.700;37.984;2023-03-01T04:22:44;99243.25;;;-9.33;96.44
55932;BME280;41837;55.700;37.984;2023-03-01T04:25:13;99252.75;;;-9.24;95.86
55932;BME280;41837;55.700;37.984;2023-03-01T04:27:40;99270.69;;;-9.16;96.22
55932;BME280;41837;55.700;37.984;2023-03-01T04:30:08;99280.06;;;-9.14;96.27
55932;BME280;41837;55.700;37.984;2023-03-01T04:32:35;99281.19;;;-9.04;95.44
55932;BME280;41837;55.700;37.984;2023-03-01T04:35:01;99273.72;;;-8.98;96.09
55932;BME280;41837;55.700;37.984;2023-03-01T04:37:28;99270.56;;;-8.91;96.55
55932;BME280;41837;55.700;37.984;2023-03-01T04:39:55;99279.22;;;-8.83;94.82
55932;BME280;41837;55.700;37.984;2023-03-01T04:42:22;99273.56;;;-8.72;94.36
55932;BME280;41837;55.700;37.984;2023-03-01T04:44:48;99277.59;;;-8.47;94.04
55932;BME280;41837;55.700;37.984;2023-03-01T04:47:17;99277.94;;;-7.98;90.82
55932;BME280;41837;55.700;37.984;2023-03-01T04:49:43;99282.81;;;-6.89;84.83
55932;BME280;41837;55.700;37.984;2023-03-01T04:52:09;99268.63;;;-6.29;78.74
55932;BME280;41837;55.700;37.984;2023-03-01T04:54:36;99263.50;;;-6.32;77.39
55932;BME280;41837;55.700;37.984;2023-03-01T04:57:02;99281.44;;;-6.24;77.68
55932;BME280;41837;55.700;37.984;2023-03-01T04:59:29;99284.63;;;-6.36;76.75
55932;BME280;41837;55.700;37.984;2023-03-01T05:01:56;99256.63;;;-6.38;76.04
55932;BME280;41837;55.700;37.984;2023-03-01T05:04:24;99274.53;;;-6.79;78.18
55932;BME280;41837;55.700;37.984;2023-03-01T05:06:50;99276.63;;;-6.58;77.70
55932;BME280;41837;55.700;37.984;2023-03-01T05:09:16;99282.03;;;-6.85;78.02
55932;BME280;41837;55.700;37.984;2023-03-01T05:11:42;99283.78;;;-6.82;78.83
55932;BME280;41837;55.700;37.984;2023-03-01T05:14:10;99290.44;;;-6.89;78.17
55932;BME280;41837;55.700;37.984;2023-03-01T05:16:36;99295.19;;;-6.60;78.46
55932;BME280;41837;55.700;37.984;2023-03-01T05:19:03;99296.34;;;-5.91;75.74
55932;BME280;41837;55.700;37.984;2023-03-01T05:21:42;99293.94;;;-6.38;75.93
55932;BME280;41837;55.700;37.984;2023-03-01T05:24:28;99301.19;;;-6.58;75.62
55932;BME280;41837;55.700;37.984;2023-03-01T05:26:54;99296.13;;;-6.57;77.17
55932;BME280;41837;55.700;37.984;2023-03-01T05:29:25;99310.00;;;-5.89;74.55
55932;BME280;41837;55.700;37.984;2023-03-01T05:31:56;99301.94;;;-4.94;72.55
55932;BME280;41837;55.700;37.984;2023-03-01T05:34:32;99301.75;;;-4.38;68.49
55932;BME280;41837;55.700;37.984;2023-03-01T05:36:59;99296.88;;;-4.12;67.44
55932;BME280;41837;55.700;37.984;2023-03-01T05:39:27;99303.00;;;-3.91;66.84
55932;BME280;41837;55.700;37.984;2023-03-01T05:41:58;99310.22;;;-3.33;63.83
55932;BME280;41837;55.700;37.984;2023-03-01T05:44:26;99311.16;;;-3.19;62.15
55932;BME280;41837;55.700;37.984;2023-03-01T05:46:52;99316.50;;;-2.65;60.88
55932;BME280;41837;55.700;37.984;2023-03-01T05:49:18;99304.69;;;-2.12;59.42
55932;BME280;41837;55.700;37.984;2023-03-01T05:51:49;99310.69;;;-1.70;59.12
55932;BME280;41837;55.700;37.984;2023-03-01T05:54:15;99315.78;;;-1.88;57.91
55932;BME280;41837;55.700;37.984;2023-03-01T05:56:41;99312.34;;;-2.13;58.48
55932;BME280;41837;55.700;37.984;2023-03-01T05:59:07;99314.94;;;-1.84;58.10
55932;BME280;41837;55.700;37.984;2023-03-01T06:01:34;99301.25;;;-1.92;57.84
55932;BME280;41837;55.700;37.984;2023-03-01T06:04:01;99317.25;;;-2.90;59.69
55932;BME280;41837;55.700;37.984;2023-03-01T06:06:28;99321.16;;;-3.54;61.84
55932;BME280;41837;55.700;37.984;2023-03-01T06:08:54;99329.13;;;-4.18;64.97
55932;BME280;41837;55.700;37.984;2023-03-01T06:11:20;99323.25;;;-4.09;65.54
55932;BME280;41837;55.700;37.984;2023-03-01T06:13:47;99328.78;;;-4.52;66.40
55932;BME280;41837;55.700;37.984;2023-03-01T06:16:14;99328.00;;;-4.45;67.47
55932;BME280;41837;55.700;37.984;2023-03-01T06:18:41;99339.94;;;-5.13;68.37
55932;BME280;41837;55.700;37.984;2023-03-01T06:21:08;99330.69;;;-5.06;70.01
55932;BME280;41837;55.700;37.984;2023-03-01T06:23:34;99331.91;;;-5.42;69.87
55932;BME280;41837;55.700;37.984;2023-03-01T06:26:06;99342.28;;;-5.28;71.97
55932;BME280;41837;55.700;37.984;2023-03-01T06:28:32;99333.16;;;-5.14;72.25
55932;BME280;41837;55.700;37.984;2023-03-01T06:30:59;99339.53;;;-5.42;72.26
55932;BME280;41837;55.700;37.984;2023-03-01T06:33:25;99342.22;;;-5.34;73.26
55932;BME280;41837;55.700;37.984;2023-03-01T06:35:54;99348.03;;;-5.41;72.62
55932;BME280;41837;55.700;37.984;2023-03-01T06:38:20;99330.41;;;-5.28;72.93
55932;BME280;41837;55.700;37.984;2023-03-01T06:40:52;99344.59;;;-4.82;71.98
55932;BME280;41837;55.700;37.984;2023-03-01T06:43:21;99359.78;;;-5.51;72.92
55932;BME280;41837;55.700;37.984;2023-03-01T06:45:46;99355.69;;;-5.41;72.20
55932;BME280;41837;55.700;37.984;2023-03-01T06:48:13;99354.53;;;-5.01;72.09
55932;BME280;41837;55.700;37.984;2023-03-01T06:50:38;99364.59;;;-5.13;72.96
55932;BME280;41837;55.700;37.984;2023-03-01T06:53:04;99358.22;;;-4.82;71.46
55932;BME280;41837;55.700;37.984;2023-03-01T06:55:31;99364.91;;;-4.90;71.30
55932;BME280;41837;55.700;37.984;2023-03-01T06:58:01;99363.28;;;-4.83;70.22
55932;BME280;41837;55.700;37.984;2023-03-01T07:00:28;99353.31;;;-4.65;71.02
55932;BME280;41837;55.700;37.984;2023-03-01T07:02:54;99361.16;;;-4.46;69.22
55932;BME280;41837;55.700;37.984;2023-03-01T07:05:21;99367.91;;;-4.52;69.94
55932;BME280;41837;55.700;37.984;2023-03-01T07:07:47;99349.81;;;-3.92;67.41
55932;BME280;41837;55.700;37.984;2023-03-01T07:10:14;99364.84;;;-3.20;67.30
55932;BME280;41837;55.700;37.984;2023-03-01T07:12:40;99353.19;;;-2.66;63.13
55932;BME280;41837;55.700;37.984;2023-03-01T07:15:09;99362.63;;;-3.84;66.01
55932;BME280;41837;55.700;37.984;2023-03-01T07:17:36;99374.63;;;-3.77;66.33
55932;BME280;41837;55.700;37.984;2023-03-01T07:20:03;99344.19;;;-3.46;64.29
55932;BME280;41837;55.700;37.984;2023-03-01T07:22:29;99377.09;;;-2.56;64.75
55932;BME280;41837;55.700;37.984;2023-03-01T07:24:55;99372.38;;;-3.37;61.77
55932;BME280;41837;55.700;37.984;2023-03-01T07:27:22;99365.16;;;-2.57;61.64
55932;BME280;41837;55.700;37.984;2023-03-01T07:29:48;99377.03;;;-2.71;61.58
55932;BME280;41837;55.700;37.984;2023-03-01T07:32:15;99380.72;;;-1.55;59.44
55932;BME280;41837;55.700;37.984;2023-03-01T07:34:40;99380.66;;;-1.03;57.50
55932;BME280;41837;55.700;37.984;2023-03-01T07:37:06;99361.91;;;-1.65;58.08
55932;BME280;41837;55.700;37.984;2023-03-01T07:39:33;99374.72;;;-1.91;59.62
55932;BME280;41837;55.700;37.984;2023-03-01T07:41:59;99373.84;;;-2.10;59.53
55932;BME280;41837;55.700;37.984;2023-03-01T07:44:26;99380.53;;;-2.52;60.91
55932;BME280;41837;55.700;37.984;2023-03-01T07:46:54;99366.09;;;-2.30;60.24
55932;BME280;41837;55.700;37.984;2023-03-01T07:49:24;99387.06;;;-3.08;61.61
55932;BME280;41837;55.700;37.984;2023-03-01T07:51:52;99379.50;;;-2.91;64.00
55932;BME280;41837;55.700;37.984;2023-03-01T07:54:18;99377.22;;;-0.89;59.23
55932;BME280;41837;55.700;37.984;2023-03-01T07:56:44;99374.59;;;-0.77;57.36
55932;BME280;41837;55.700;37.984;2023-03-01T07:59:10;99366.16;;;-1.10;57.35
55932;BME280;41837;55.700;37.984;2023-03-01T08:01:36;99373.00;;;-1.61;57.92
55932;BME280;41837;55.700;37.984;2023-03-01T08:04:02;99383.13;;;-0.66;57.76
55932;BME280;41837;55.700;37.984;2023-03-01T08:06:30;99374.28;;;-0.02;55.47
55932;BME280;41837;55.700;37.984;2023-03-01T08:08:56;99340.50;;;-1.19;56.94
55932;BME280;41837;55.700;37.984;2023-03-01T08:11:23;99378.13;;;-1.41;58.25
55932;BME280;41837;55.700;37.984;2023-03-01T08:13:49;99379.84;;;-1.43;57.55
55932;BME280;41837;55.700;37.984;2023-03-01T08:16:16;99345.47;;;-0.64;55.86
55932;BME280;41837;55.700;37.984;2023-03-01T08:18:43;99361.00;;;0.51;54.79
55932;BME280;41837;55.700;37.984;2023-03-01T08:21:11;99358.09;;;0.88;53.43
55932;BME280;41837;55.700;37.984;2023-03-01T08:23:38;99372.50;;;1.07;52.13
55932;BME280;41837;55.700;37.984;2023-03-01T08:26:07;99373.97;;;1.30;52.72
55932;BME280;41837;55.700;37.984;2023-03-01T08:28:34;99365.16;;;0.69;52.22
55932;BME280;41837;55.700;37.984;2023-03-01T08:31:01;99373.06;;;0.46;52.04
55932;BME280;41837;55.700;37.984;2023-03-01T08:33:28;99370.53;;;0.41;53.53
55932;BME280;41837;55.700;37.984;2023-03-01T08:36:02;99379.84;;;1.43;51.73
55932;BME280;41837;55.700;37.984;2023-03-01T08:38:34;99372.91;;;0.64;52.82
55932;BME280;41837;55.700;37.984;2023-03-01T08:41:04;99392.91;;;0.28;53.29
55932;BME280;41837;55.700;37.984;2023-03-01T08:43:30;99394.28;;;0.71;51.66
55932;BME280;41837;55.700;37.984;2023-03-01T08:45:57;99394.28;;;0.71;53.13
55932;BME280;41837;55.700;37.984;2023-03-01T08:48:23;99377.03;;;0.82;52.69
55932;BME280;41837;55.700;37.984;2023-03-01T08:50:50;99394.06;;;0.99;51.72
55932;BME280;41837;55.700;37.984;2023-03-01T08:53:16;99363.81;;;0.23;52.17
55932;BME280;41837;55.700;37.984;2023-03-01T08:55:42;99402.16;;;0.54;52.83
55932;BME280;41837;55.700;37.984;2023-03-01T08:58:08;99362.56;;;-0.58;53.45
55932;BME280;41837;55.700;37.984;2023-03-01T09:00:34;99391.53;;;-0.31;54.91
55932;BME280;41837;55.700;37.984;2023-03-01T09:03:01;99402.72;;;-0.48;56.69
55932;BME280;41837;55.700;37.984;2023-03-01T09:05:27;99402.94;;;-1.22;56.92
55932;BME280;41837;55.700;37.984;2023-03-01T09:07:53;99408.06;;;-1.40;58.89
55932;BME280;41837;55.700;37.984;2023-03-01T09:10:20;99406.28;;;-0.87;58.71
55932;BME280;41837;55.700;37.984;2023-03-01T09:12:46;99406.34;;;-1.18;59.47
55932;BME280;41837;55.700;37.984;2023-03-01T09:15:12;99402.94;;;-1.42;59.24
55932;BME280;41837;55.700;37.984;2023-03-01T09:17:38;99409.75;;;-1.53;59.90
55932;BME280;41837;55.700;37.984;2023-03-01T09:20:05;99396.09;;;-1.57;60.19
55932;BME280;41837;55.700;37.984;2023-03-01T09:22:35;99410.56;;;-0.88;58.38
55932;BME280;41837;55.700;37.984;2023-03-01T09:25:01;99350.78;;;-1.33;58.71
55932;BME280;41837;55.700;37.984;2023-03-01T09:27:28;99365.31;;;-1.84;58.85
55932;BME280;41837;55.700;37.984;2023-03-01T09:29:55;99388.41;;;-1.52;59.39
55932;BME280;41837;55.700;37.984;2023-03-01T09:32:22;99402.78;;;-2.30;62.66
55932;BME280;41837;55.700;37.984;2023-03-01T09:34:48;99397.69;;;-2.23;63.13
55932;BME280;41837;55.700;37.984;2023-03-01T09:37:33;99396.09;;;-1.80;62.50
55932;BME280;41837;55.700;37.984;2023-03-01T09:40:00;99372.16;;;-1.85;62.73
55932;BME280;41837;55.700;37.984;2023-03-01T09:42:29;99419.19;;;-1.35;61.57
55932;BME280;41837;55.700;37.984;2023-03-01T09:45:23;99405.50;;;-1.39;59.32
55932;BME280;41837;55.700;37.984;2023-03-01T09:47:51;99420.75;;;-2.23;61.53
55932;BME280;41837;55.700;37.984;2023-03-01T09:50:19;99387.16;;;-2.94;61.76
55932;BME280;41837;55.700;37.984;2023-03-01T09:52:53;99413.09;;;-2.11;60.97
55932;BME280;41837;55.700;37.984;2023-03-01T09:55:29;99411.13;;;-2.72;63.74
55932;BME280;41837;55.700;37.984;2023-03-01T10:01:21;99414.75;;;-2.21;60.38
55932;BME280;41837;55.700;37.984;2023-03-01T10:06:30;99407.06;;;-0.58;57.80
55932;BME280;41837;55.700;37.984;2023-03-01T10:09:02;99399.34;;;-0.53;57.90
55932;BME280;41837;55.700;37.984;2023-03-01T10:11:32;99420.72;;;-0.46;58.39
55932;BME280;41837;55.700;37.984;2023-03-01T10:14:35;99410.59;;;-1.79;59.66
55932;BME280;41837;55.700;37.984;2023-03-01T10:19:46;99426.84;;;-1.54;59.39
55932;BME280;41837;55.700;37.984;2023-03-01T10:22:22;99415.75;;;-1.45;58.86
55932;BME280;41837;55.700;37.984;2023-03-01T10:24:51;99411.34;;;-0.61;58.90
55932;BME280;41837;55.700;37.984;2023-03-01T10:29:58;99423.44;;;-1.42;60.11
55932;BME280;41837;55.700;37.984;2023-03-01T10:32:27;99428.50;;;-1.91;60.88
55932;BME280;41837;55.700;37.984;2023-03-01T10:34:53;99384.13;;;-1.81;61.17
55932;BME280;41837;55.700;37.984;2023-03-01T10:37:21;99394.38;;;-1.27;59.88
55932;BME280;41837;55.700;37.984;2023-03-01T10:40:08;99413.16;;;-1.09;58.79
55932;BME280;41837;55.700;37.984;2023-03-01T10:42:39;99425.69;;;-0.09;57.40
55932;BME280;41837;55.700;37.984;2023-03-01T10:47:41;99425.09;;;-1.87;61.62
55932;BME280;41837;55.700;37.984;2023-03-01T10:50:19;99414.69;;;-2.42;63.28
55932;BME280;41837;55.700;37.984;2023-03-01T10:52:58;99443.78;;;-2.22;63.00
55932;BME280;41837;55.700;37.984;2023-03-01T10:58:09;99439.25;;;-2.77;64.19
55932;BME280;41837;55.700;37.984;2023-03-01T11:03:18;99432.47;;;-2.67;64.74
55932;BME280;41837;55.700;37.984;2023-03-01T11:06:03;99448.03;;;-2.29;64.64
55932;BME280;41837;55.700;37.984;2023-03-01T11:08:35;99442.84;;;-2.42;64.92
55932;BME280;41837;55.700;37.984;2023-03-01T11:16:27;99434.00;;;-2.95;65.54
55932;BME280;41837;55.700;37.984;2023-03-01T11:18:59;99426.38;;;-2.92;64.89
55932;BME280;41837;55.700;37.984;2023-03-01T11:21:28;99432.25;;;-3.09;65.16
55932;BME280;41837;55.700;37.984;2023-03-01T11:23:59;99412.88;;;-2.65;65.31
55932;BME280;41837;55.700;37.984;2023-03-01T11:26:27;99400.91;;;-2.74;63.62
55932;BME280;41837;55.700;37.984;2023-03-01T11:28:56;99453.72;;;-2.81;63.36
55932;BME280;41837;55.700;37.984;2023-03-01T11:31:26;99451.97;;;-2.89;65.48
55932;BME280;41837;55.700;37.984;2023-03-01T11:33:57;99429.66;;;-3.07;64.35
55932;BME280;41837;55.700;37.984;2023-03-01T11:36:38;99448.63;;;-2.77;64.34
55932;BME280;41837;55.700;37.984;2023-03-01T11:42:10;99447.66;;;-2.96;63.54
55932;BME280;41837;55.700;37.984;2023-03-01T11:44:42;99449.25;;;-3.14;63.78
55932;BME280;41837;55.700;37.984;2023-03-01T11:47:21;99433.13;;;-3.04;63.76
55932;BME280;41837;55.700;37.984;2023-03-01T11:50:04;99446.09;;;-2.73;62.91
55932;BME280;41837;55.700;37.984;2023-03-01T11:53:05;99452.16;;;-2.55;61.63
55932;BME280;41837;55.700;37.984;2023-03-01T11:58:45;99437.63;;;-2.63;61.85
55932;BME280;41837;55.700;37.984;2023-03-01T12:01:33;99459.84;;;-2.54;63.59
55932;BME280;41837;55.700;37.984;2023-03-01T12:12:30;99446.09;;;-2.76;61.03
55932;BME280;41837;55.700;37.984;2023-03-01T12:15:32;99463.91;;;-2.90;61.09
55932;BME280;41837;55.700;37.984;2023-03-01T12:18:28;99472.22;;;-3.20;63.67
55932;BME280;41837;55.700;37.984;2023-03-01T12:20:58;99461.56;;;-2.54;62.72
55932;BME280;41837;55.700;37.984;2023-03-01T12:23:54;99453.88;;;-2.57;60.16
55932;BME280;41837;55.700;37.984;2023-03-01T12:29:26;99464.03;;;-2.73;61.46
55932;BME280;41837;55.700;37.984;2023-03-01T12:37:36;99464.31;;;-2.13;61.15
55932;BME280;41837;55.700;37.984;2023-03-01T12:45:54;99404.91;;;-3.14;64.04
55932;BME280;41837;55.700;37.984;2023-03-01T12:51:14;99451.41;;;-2.34;62.87
55932;BME280;41837;55.700;37.984;2023-03-01T12:53:48;99453.97;;;-2.40;63.05
55932;BME280;41837;55.700;37.984;2023-03-01T12:56:24;99429.78;;;-2.89;62.78
55932;BME280;41837;55.700;37.984;2023-03-01T13:12:45;99450.66;;;-3.53;63.75
55932;BME280;41837;55.700;37.984;2023-03-01T13:17:55;99448.94;;;-3.51;63.13
55932;BME280;41837;55.700;37.984;2023-03-01T13:23:02;99451.53;;;-3.49;65.06
55932;BME280;41837;55.700;37.984;2023-03-01T13:25:30;99450.59;;;-3.58;65.41
55932;BME280;41837;55.700;37.984;2023-03-01T13:31:04;99419.88;;;-3.64;65.09
55932;BME280;41837;55.700;37.984;2023-03-01T13:35:57;99423.97;;;-3.81;65.13
55932;BME280;41837;55.700;37.984;2023-03-01T13:38:47;99447.09;;;-3.67;65.71
55932;BME280;41837;55.700;37.984;2023-03-01T13:41:16;99437.47;;;-3.93;65.28
55932;BME280;41837;55.700;37.984;2023-03-01T13:43:44;99440.19;;;-3.78;66.60
55932;BME280;41837;55.700;37.984;2023-03-01T13:46:21;99428.09;;;-3.94;66.39
55932;BME280;41837;55.700;37.984;2023-03-01T13:48:52;99420.38;;;-4.02;66.39
55932;BME280;41837;55.700;37.984;2023-03-01T13:51:26;99450.09;;;-4.07;67.06
55932;BME280;41837;55.700;37.984;2023-03-01T13:53:55;99443.31;;;-4.03;67.79
55932;BME280;41837;55.700;37.984;2023-03-01T13:56:36;99432.16;;;-4.12;66.96
55932;BME280;41837;55.700;37.984;2023-03-01T13:59:15;99443.97;;;-4.20;67.71
55932;BME280;41837;55.700;37.984;2023-03-01T14:01:41;99402.88;;;-4.44;66.98
55932;BME280;41837;55.700;37.984;2023-03-01T14:04:27;99440.44;;;-4.33;67.43
55932;BME280;41837;55.700;37.984;2023-03-01T14:07:20;99440.31;;;-4.42;68.25
55932;BME280;41837;55.700;37.984;2023-03-01T14:09:51;99453.13;;;-4.39;68.51
55932;BME280;41837;55.700;37.984;2023-03-01T14:12:54;99442.84;;;-4.43;69.65
55932;BME280;41837;55.700;37.984;2023-03-01T14:15:46;99442.06;;;-4.39;70.89
55932;BME280;41837;55.700;37.984;2023-03-01T14:18:33;99436.00;;;-4.47;70.39
55932;BME280;41837;55.700;37.984;2023-03-01T14:21:07;99427.41;;;-4.54;71.36
55932;BME280;41837;55.700;37.984;2023-03-01T14:23:34;99429.88;;;-4.60;71.45
55932;BME280;41837;55.700;37.984;2023-03-01T14:26:02;99435.91;;;-4.54;73.10
55932;BME280;41837;55.700;37.984;2023-03-01T14:28:31;99434.94;;;-4.65;72.08
55932;BME280;41837;55.700;37.984;2023-03-01T14:31:31;99439.91;;;-4.74;72.59
55932;BME280;41837;55.700;37.984;2023-03-01T14:33:57;99396.91;;;-5.09;73.78
55932;BME280;41837;55.700;37.984;2023-03-01T14:36:32;99396.91;;;-5.09;72.68